createdAt,value
2022-08-16T00:01:41.784Z,71.72
2022-08-16T00:04:07.061Z,71.71
2022-08-16T00:06:33.490Z,71.88
2022-08-16T00:08:59.888Z,72.25
2022-08-16T00:11:26.390Z,72.15
2022-08-16T00:13:54.601Z,72.43
2022-08-16T00:17:06.559Z,72.31
2022-08-16T00:18:45.475Z,72.46
2022-08-16T00:21:11.848Z,72.66
2022-08-16T00:23:40.483Z,72.71
2022-08-16T00:26:36.073Z,72.89
2022-08-16T00:28:30.931Z,73.08
2022-08-16T00:30:59.299Z,73.17
2022-08-16T00:33:23.787Z,73.50
2022-08-16T00:35:50.147Z,73.80
2022-08-16T00:38:41.297Z,73.87
2022-08-16T00:40:43.911Z,74.15
2022-08-16T00:43:12.298Z,74.21
2022-08-16T00:45:35.846Z,74.19
2022-08-16T00:48:02.074Z,74.25
2022-08-16T00:50:36.375Z,74.41
2022-08-16T00:52:55.024Z,73.97
2022-08-16T00:55:21.248Z,73.23
2022-08-16T00:58:00.002Z,72.45
2022-08-16T01:00:13.972Z,71.76
2022-08-16T01:02:40.423Z,71.23
2022-08-16T01:05:11.524Z,71.22
2022-08-16T01:07:51.580Z,71.68
2022-08-16T01:09:59.639Z,72.06
2022-08-16T01:12:26.496Z,72.30
2022-08-16T01:14:53.323Z,72.49
2022-08-16T01:17:18.786Z,72.62
2022-08-16T01:19:45.244Z,72.60
2022-08-16T01:22:49.626Z,72.96
2022-08-16T01:24:51.552Z,73.40
2022-08-16T01:27:04.411Z,73.62
2022-08-16T01:29:37.450Z,73.78
2022-08-16T01:31:57.296Z,73.87
2022-08-16T01:34:26.492Z,73.92
2022-08-16T01:36:58.182Z,73.91
2022-08-16T01:39:16.408Z,73.90
2022-08-16T01:41:44.209Z,74.29
2022-08-16T01:44:09.170Z,74.26
2022-08-16T01:46:39.992Z,74.19
2022-08-16T01:49:01.967Z,74.40
2022-08-16T01:51:28.367Z,74.57
2022-08-16T01:53:55.782Z,74.78
2022-08-16T01:56:23.474Z,74.72
2022-08-16T01:58:48.019Z,75.04
2022-08-16T02:01:13.938Z,74.96
2022-08-16T02:03:40.252Z,75.03
2022-08-16T02:06:07.934Z,75.37
2022-08-16T02:08:34.241Z,75.71
2022-08-16T02:10:59.518Z,76.21
2022-08-16T02:13:27.836Z,76.42
2022-08-16T02:15:52.245Z,75.88
2022-08-16T02:18:18.914Z,76.36
2022-08-16T02:20:45.401Z,76.14
2022-08-16T02:23:11.485Z,75.91
2022-08-16T02:25:52.516Z,76.28
2022-08-16T02:28:04.336Z,75.89
2022-08-16T02:30:37.229Z,75.82
2022-08-16T02:32:57.057Z,75.86
2022-08-16T02:35:23.714Z,75.59
2022-08-16T02:37:52.573Z,75.50
2022-08-16T02:40:16.534Z,75.38
2022-08-16T02:42:42.646Z,75.34
2022-08-16T02:45:09.016Z,75.86
2022-08-16T02:48:00.345Z,76.24
2022-08-16T02:50:54.029Z,76.56
2022-08-16T02:52:29.436Z,76.92
2022-08-16T02:54:55.373Z,77.11
2022-08-16T02:57:20.966Z,77.50
2022-08-16T02:59:47.369Z,78.15
2022-08-16T03:02:13.785Z,78.42
2022-08-16T03:04:52.225Z,78.94
2022-08-16T03:07:06.514Z,79.42
2022-08-16T03:09:32.878Z,79.51
2022-08-16T03:11:59.262Z,79.85
2022-08-16T03:14:25.634Z,80.10
2022-08-16T03:16:59.706Z,80.66
2022-08-16T03:19:18.463Z,80.60
2022-08-16T03:21:44.824Z,81.16
2022-08-16T03:24:29.127Z,81.55
2022-08-16T03:26:37.587Z,81.96
2022-08-16T03:29:03.972Z,82.04
2022-08-16T03:31:34.728Z,82.00
2022-08-16T03:33:56.815Z,82.28
2022-08-16T03:36:30.848Z,82.87
2022-08-16T03:38:49.579Z,83.36
2022-08-16T03:41:24.424Z,83.34
2022-08-16T03:43:51.668Z,83.12
2022-08-16T03:46:08.682Z,83.00
2022-08-16T03:48:37.129Z,83.84
2022-08-16T03:51:01.443Z,84.27
2022-08-16T03:53:38.069Z,83.85
2022-08-16T03:55:54.195Z,84.65
2022-08-16T03:58:20.567Z,84.75
2022-08-16T04:00:46.982Z,84.71
2022-08-16T04:03:13.401Z,85.01
2022-08-16T04:05:39.757Z,85.59
2022-08-16T04:08:22.807Z,85.04
2022-08-16T04:10:36.989Z,84.63
2022-08-16T04:13:04.652Z,84.06
2022-08-16T04:15:25.324Z,83.82
2022-08-16T04:17:51.694Z,83.77
2022-08-16T04:20:31.137Z,84.10
2022-08-16T04:22:44.555Z,83.86
2022-08-16T04:25:10.954Z,83.32
2022-08-16T04:27:37.341Z,82.83
2022-08-16T04:30:03.901Z,82.70
2022-08-16T04:32:30.184Z,82.66
2022-08-16T04:34:56.548Z,82.57
2022-08-16T04:37:22.949Z,82.39
2022-08-16T04:39:57.060Z,82.02
2022-08-16T04:42:15.818Z,82.28
2022-08-16T04:44:53.496Z,82.13
2022-08-16T04:47:21.133Z,82.16
2022-08-16T04:49:44.019Z,82.19
2022-08-16T04:52:01.379Z,82.00
2022-08-16T04:54:27.775Z,82.12
2022-08-16T04:56:54.171Z,82.48
2022-08-16T04:59:20.641Z,82.26
2022-08-16T05:01:56.070Z,81.87
2022-08-16T05:04:19.637Z,81.47
2022-08-16T05:06:42.224Z,81.09
2022-08-16T05:09:06.195Z,80.83
2022-08-16T05:11:32.565Z,80.41
2022-08-16T05:14:05.599Z,79.55
2022-08-16T05:16:25.315Z,78.55
2022-08-16T05:18:51.723Z,77.09
2022-08-16T05:21:18.050Z,76.92
2022-08-16T05:23:49.499Z,76.76
2022-08-16T05:26:20.170Z,75.90
2022-08-16T05:28:38.965Z,75.48
2022-08-16T05:31:03.669Z,74.88
2022-08-16T05:33:30.051Z,73.87
2022-08-16T05:35:56.528Z,73.25
2022-08-16T05:38:32.585Z,72.63
2022-08-16T05:40:59.626Z,72.34
2022-08-16T05:43:15.770Z,72.07
2022-08-16T05:45:42.881Z,71.58
2022-08-16T05:48:08.520Z,70.70
2022-08-16T05:50:34.912Z,70.10
2022-08-16T05:53:01.377Z,69.46
2022-08-16T05:55:27.681Z,68.88
2022-08-16T05:57:54.113Z,68.19
2022-08-16T06:00:22.552Z,67.39
2022-08-16T06:02:46.950Z,66.83
2022-08-16T06:05:14.626Z,66.03
2022-08-16T06:07:39.736Z,65.42
2022-08-16T06:10:06.120Z,64.89
2022-08-16T06:12:32.516Z,64.41
2022-08-16T06:14:59.522Z,63.62
2022-08-16T06:17:25.287Z,63.11
2022-08-16T06:19:51.653Z,62.67
2022-08-16T06:22:37.266Z,62.18
2022-08-16T06:24:53.979Z,61.66
2022-08-16T06:27:10.824Z,60.87
2022-08-16T06:29:37.231Z,60.21
2022-08-16T06:32:04.302Z,59.73
2022-08-16T06:34:56.246Z,59.59
2022-08-16T06:36:59.357Z,59.38
2022-08-16T06:39:22.846Z,59.00
2022-08-16T06:41:49.201Z,58.61
2022-08-16T06:44:20.683Z,58.30
2022-08-16T06:46:41.929Z,58.16
2022-08-16T06:49:08.389Z,57.92
2022-08-16T06:51:45.173Z,57.41
2022-08-16T06:54:01.254Z,56.78
2022-08-16T06:56:27.680Z,56.55
2022-08-16T06:58:54.123Z,55.89
2022-08-16T07:01:44.516Z,55.74
2022-08-16T07:03:55.402Z,55.36
2022-08-16T07:06:13.251Z,55.07
2022-08-16T07:08:39.648Z,54.79
2022-08-16T07:11:06.082Z,54.04
2022-08-16T07:14:04.017Z,53.82
2022-08-16T07:15:58.831Z,53.41
2022-08-16T07:18:25.195Z,52.95
2022-08-16T07:20:51.707Z,53.01
2022-08-16T07:23:18.070Z,52.58
2022-08-16T07:25:44.440Z,52.16
2022-08-16T07:28:12.155Z,51.75
2022-08-16T07:30:45.055Z,50.97
2022-08-16T07:33:03.633Z,51.71
2022-08-16T07:35:30.000Z,51.60
2022-08-16T07:37:56.370Z,50.80
2022-08-16T07:40:42.809Z,50.22
2022-08-16T07:42:49.333Z,49.60
2022-08-16T07:45:16.878Z,49.12
2022-08-16T07:47:42.168Z,49.06
2022-08-16T07:50:08.324Z,48.90
2022-08-16T07:52:34.730Z,48.41
2022-08-16T07:55:01.209Z,48.50
2022-08-16T07:57:27.541Z,48.65
2022-08-16T07:59:53.940Z,48.06
2022-08-16T08:02:21.024Z,47.43
2022-08-16T08:04:46.683Z,47.44
2022-08-16T08:07:13.122Z,46.84
2022-08-16T08:09:43.479Z,46.83
2022-08-16T08:12:05.891Z,46.37
2022-08-16T08:14:32.230Z,45.97
2022-08-16T08:16:58.750Z,45.65
2022-08-16T08:19:25.107Z,45.16
2022-08-16T08:22:00.554Z,45.21
2022-08-16T08:24:17.946Z,44.69
2022-08-16T08:26:44.413Z,44.71
2022-08-16T08:29:10.763Z,44.38
2022-08-16T08:31:37.124Z,44.28
2022-08-16T08:34:04.812Z,43.63
2022-08-16T08:36:33.040Z,43.80
2022-08-16T08:38:56.232Z,43.64
2022-08-16T08:41:27.732Z,42.28
2022-08-16T08:43:50.433Z,42.21
2022-08-16T08:46:18.412Z,41.35
2022-08-16T08:48:43.802Z,40.69
2022-08-16T08:51:08.776Z,40.39
2022-08-16T08:53:34.630Z,40.38
2022-08-16T08:56:00.998Z,40.01
2022-08-16T08:58:34.323Z,40.42
2022-08-16T09:00:53.827Z,40.20
2022-08-16T09:03:20.187Z,40.03
2022-08-16T09:05:51.265Z,40.01
2022-08-16T09:08:12.934Z,39.57
2022-08-16T09:10:39.524Z,40.16
2022-08-16T09:13:05.672Z,39.92
2022-08-16T09:15:33.041Z,40.09
2022-08-16T09:17:58.448Z,40.53
2022-08-16T09:20:25.384Z,40.07
2022-08-16T09:22:52.529Z,39.39
2022-08-16T09:25:20.681Z,38.62
2022-08-16T09:27:56.896Z,38.58
2022-08-16T09:30:34.394Z,38.60
2022-08-16T09:32:37.037Z,38.70
2022-08-16T09:35:03.427Z,38.42
2022-08-16T09:37:30.167Z,38.14
2022-08-16T09:39:56.217Z,37.00
2022-08-16T09:42:22.534Z,37.69
2022-08-16T09:45:12.200Z,37.89
2022-08-16T09:47:15.435Z,37.46
2022-08-16T09:49:41.800Z,37.95
2022-08-16T09:52:09.383Z,37.93
2022-08-16T09:54:34.551Z,38.24
2022-08-16T09:57:00.929Z,37.74
2022-08-16T09:59:30.742Z,37.95
2022-08-16T10:01:54.638Z,38.32
2022-08-16T10:04:30.389Z,37.59
2022-08-16T10:06:46.633Z,37.84
2022-08-16T10:09:12.952Z,37.73
2022-08-16T10:11:50.216Z,36.81
2022-08-16T10:14:05.716Z,36.83
2022-08-16T10:16:32.076Z,36.37
2022-08-16T10:19:01.838Z,36.94
2022-08-16T10:21:24.829Z,36.04
2022-08-16T10:23:51.193Z,36.34
2022-08-16T10:27:16.446Z,36.52
2022-08-16T10:28:44.125Z,36.80
2022-08-16T10:31:11.952Z,37.32
2022-08-16T10:33:40.471Z,36.61
2022-08-16T10:36:04.121Z,36.59
2022-08-16T10:38:29.616Z,37.13
2022-08-16T10:40:55.994Z,36.96
2022-08-16T10:43:22.362Z,37.37
2022-08-16T10:46:00.595Z,37.30
2022-08-16T10:48:27.992Z,37.25
2022-08-16T10:50:41.510Z,37.76
2022-08-16T10:53:07.890Z,37.79
2022-08-16T10:55:40.260Z,37.73
2022-08-16T10:58:00.770Z,37.96
2022-08-16T11:00:27.131Z,37.83
2022-08-16T11:02:59.983Z,37.13
2022-08-16T11:05:19.907Z,37.37
2022-08-16T11:07:52.447Z,37.18
2022-08-16T11:10:20.709Z,36.91
2022-08-16T11:12:39.033Z,37.14
2022-08-16T11:15:13.305Z,37.33
2022-08-16T11:17:32.669Z,36.50
2022-08-16T11:20:40.727Z,36.64
2022-08-16T11:22:47.060Z,36.11
2022-08-16T11:25:11.874Z,35.86
2022-08-16T11:27:19.958Z,36.79
2022-08-16T11:29:43.926Z,36.38
2022-08-16T11:32:10.321Z,36.62
2022-08-16T11:35:05.949Z,36.57
2022-08-16T11:37:03.187Z,36.70
2022-08-16T11:39:29.686Z,36.69
2022-08-16T11:41:56.056Z,36.95
2022-08-16T11:44:52.938Z,37.19
2022-08-16T11:46:48.920Z,37.76
2022-08-16T11:49:15.301Z,37.84
2022-08-16T11:51:41.789Z,38.24
2022-08-16T11:54:11.611Z,38.51
2022-08-16T11:56:51.876Z,39.15
2022-08-16T11:59:01.068Z,40.60
2022-08-16T12:01:29.685Z,41.88
2022-08-16T12:03:53.847Z,42.50
2022-08-16T12:06:30.288Z,43.22
2022-08-16T12:08:46.661Z,43.60
2022-08-16T12:11:13.020Z,45.43
2022-08-16T12:13:39.414Z,46.43
2022-08-16T12:16:05.807Z,47.58
2022-08-16T12:18:32.313Z,47.76
2022-08-16T12:20:58.605Z,48.77
2022-08-16T12:23:24.993Z,50.03
2022-08-16T12:25:51.355Z,50.40
2022-08-16T12:28:36.783Z,50.73
2022-08-16T12:30:44.186Z,51.10
2022-08-16T12:33:10.554Z,52.15
2022-08-16T12:35:36.921Z,53.57
2022-08-16T12:38:38.005Z,53.89
2022-08-16T12:40:29.940Z,54.64
2022-08-16T12:42:59.032Z,55.31
2022-08-16T12:45:22.702Z,57.07
2022-08-16T12:47:49.081Z,57.04
2022-08-16T12:50:15.658Z,57.42
2022-08-16T12:52:44.379Z,57.19
2022-08-16T12:55:08.603Z,57.28
2022-08-16T12:57:36.631Z,58.35
2022-08-16T13:00:01.052Z,58.46
2022-08-16T13:02:33.866Z,58.10
2022-08-16T13:04:53.813Z,57.47
2022-08-16T13:07:20.184Z,57.12
2022-08-16T13:09:46.613Z,56.32
2022-08-16T13:12:12.978Z,56.24
2022-08-16T13:14:39.385Z,55.23
2022-08-16T13:17:06.712Z,54.95
2022-08-16T13:20:03.381Z,53.33
2022-08-16T13:21:58.580Z,53.70
2022-08-16T13:24:24.944Z,53.34
2022-08-16T13:26:53.343Z,52.09
2022-08-16T13:29:17.702Z,50.59
2022-08-16T13:31:44.106Z,49.44
2022-08-16T13:34:10.543Z,49.34
2022-08-16T13:36:48.604Z,49.01
2022-08-16T13:39:03.282Z,46.91
2022-08-16T13:41:30.356Z,45.64
2022-08-16T13:43:57.826Z,44.28
2022-08-16T13:46:22.502Z,44.44
2022-08-16T13:48:48.931Z,42.81
2022-08-16T13:51:16.952Z,42.41
2022-08-16T13:53:41.695Z,42.21
2022-08-16T13:56:08.131Z,41.56
2022-08-16T13:58:40.218Z,41.75
2022-08-16T14:01:00.932Z,43.13
2022-08-16T14:03:27.308Z,43.23
2022-08-16T14:05:53.759Z,43.02
2022-08-16T14:08:23.903Z,43.65
2022-08-16T14:10:46.497Z,42.56
2022-08-16T14:13:19.922Z,42.17
2022-08-16T14:15:41.900Z,41.55
2022-08-16T14:18:15.406Z,40.79
2022-08-16T14:20:32.050Z,41.77
2022-08-16T14:22:58.403Z,41.49
2022-08-16T14:25:24.792Z,41.02
2022-08-16T14:27:54.395Z,40.77
2022-08-16T14:30:17.556Z,41.16
2022-08-16T14:32:46.728Z,42.24
2022-08-16T14:35:10.341Z,40.93
2022-08-16T14:37:36.730Z,40.87
2022-08-16T14:40:03.580Z,41.01
2022-08-16T14:42:29.540Z,40.86
2022-08-16T14:44:55.918Z,41.08
2022-08-16T14:47:22.354Z,40.82
2022-08-16T14:49:48.736Z,41.24
2022-08-16T14:52:17.842Z,41.40
2022-08-16T14:54:41.491Z,40.82
2022-08-16T14:57:07.869Z,39.96
2022-08-16T14:59:34.403Z,40.69
2022-08-16T15:02:01.055Z,40.46
2022-08-16T15:04:39.555Z,40.58
2022-08-16T15:06:53.455Z,39.93
2022-08-16T15:09:19.823Z,40.29
2022-08-16T15:11:46.223Z,41.22
2022-08-16T15:14:12.590Z,41.74
2022-08-16T15:16:39.015Z,40.81
2022-08-16T15:19:05.375Z,41.80
2022-08-16T15:21:31.865Z,41.21
2022-08-16T15:23:58.223Z,41.75
2022-08-16T15:26:34.569Z,41.73
2022-08-16T15:28:51.049Z,41.18
2022-08-16T15:31:17.348Z,39.63
2022-08-16T15:33:47.322Z,39.41
2022-08-16T15:36:10.190Z,40.49
2022-08-16T15:39:02.747Z,40.04
2022-08-16T15:41:03.001Z,39.94
2022-08-16T15:43:38.935Z,40.22
2022-08-16T15:45:55.939Z,40.42
2022-08-16T15:48:22.169Z,40.14
2022-08-16T15:50:48.641Z,40.33
2022-08-16T15:53:15.002Z,40.21
2022-08-16T15:55:41.363Z,40.07
2022-08-16T15:58:35.150Z,39.89
2022-08-16T16:00:34.348Z,39.44
2022-08-16T16:03:00.582Z,39.73
2022-08-16T16:05:26.944Z,40.09
2022-08-16T16:07:56.737Z,40.32
2022-08-16T16:10:19.740Z,40.54
2022-08-16T16:12:50.942Z,40.92
2022-08-16T16:15:12.486Z,41.45
2022-08-16T16:17:38.891Z,41.61
2022-08-16T16:20:05.323Z,42.17
2022-08-16T16:22:31.689Z,42.29
2022-08-16T16:24:58.050Z,42.62
2022-08-16T16:27:24.419Z,43.06
2022-08-16T16:29:58.093Z,43.53
2022-08-16T16:32:17.175Z,44.05
2022-08-16T16:34:43.559Z,44.30
2022-08-16T16:37:10.120Z,44.33
2022-08-16T16:39:36.352Z,44.46
2022-08-16T16:42:02.710Z,45.20
2022-08-16T16:44:33.477Z,45.62
2022-08-16T16:46:56.908Z,45.63
2022-08-16T16:49:21.813Z,46.05
2022-08-16T16:51:50.187Z,46.09
2022-08-16T16:54:27.507Z,46.31
2022-08-16T16:56:49.496Z,46.39
2022-08-16T16:59:07.433Z,46.85
2022-08-16T17:01:50.134Z,46.85
2022-08-16T17:04:00.179Z,46.99
2022-08-16T17:06:26.546Z,47.05
2022-08-16T17:08:52.958Z,47.05
2022-08-16T17:11:19.326Z,46.81
2022-08-16T17:13:45.726Z,46.67
2022-08-16T17:16:18.427Z,47.20
2022-08-16T17:19:16.453Z,47.40
2022-08-16T17:21:04.921Z,47.57
2022-08-16T17:23:58.954Z,47.66
2022-08-16T17:25:57.718Z,47.62
2022-08-16T17:28:59.870Z,48.21
2022-08-16T17:30:50.481Z,48.68
2022-08-16T17:33:16.986Z,48.66
2022-08-16T17:35:43.369Z,48.75
2022-08-16T17:38:11.110Z,48.94
2022-08-16T17:40:47.476Z,49.34
2022-08-16T17:43:02.513Z,49.09
2022-08-16T17:45:28.886Z,49.30
2022-08-16T17:47:55.302Z,49.31
2022-08-16T17:50:21.701Z,49.79
2022-08-16T17:52:48.938Z,49.66
2022-08-16T17:55:14.575Z,49.96
2022-08-16T17:57:41.003Z,50.28
2022-08-16T18:00:07.447Z,50.13
2022-08-16T18:02:53.149Z,50.10
2022-08-16T18:05:00.315Z,50.23
2022-08-16T18:07:26.670Z,50.18
2022-08-16T18:09:53.088Z,49.98
2022-08-16T18:12:20.516Z,50.27
2022-08-16T18:14:52.111Z,50.18
2022-08-16T18:17:12.244Z,50.35
2022-08-16T18:19:38.612Z,50.36
2022-08-16T18:22:05.010Z,50.63
2022-08-16T18:24:31.384Z,50.64
2022-08-16T18:27:24.714Z,50.76
2022-08-16T18:29:24.231Z,51.05
2022-08-16T18:31:50.661Z,50.90
2022-08-16T18:34:17.021Z,51.02
2022-08-16T18:36:43.429Z,50.94
2022-08-16T18:39:09.831Z,50.95
2022-08-16T18:41:36.210Z,50.93
2022-08-16T18:44:24.835Z,51.27
2022-08-16T18:46:29.003Z,51.39
2022-08-16T18:48:55.489Z,51.38
2022-08-16T18:51:25.272Z,51.52
2022-08-16T18:53:48.283Z,51.49
2022-08-16T18:56:14.640Z,51.65
2022-08-16T18:58:41.007Z,51.75
2022-08-16T19:01:07.471Z,51.42
2022-08-16T19:03:33.773Z,51.75
2022-08-16T19:06:00.212Z,51.87
2022-08-16T19:08:26.613Z,51.81
2022-08-16T19:10:52.976Z,51.78
2022-08-16T19:13:19.408Z,52.06
2022-08-16T19:15:45.826Z,52.10
2022-08-16T19:18:12.269Z,52.24
2022-08-16T19:20:38.706Z,52.47
2022-08-16T19:23:10.637Z,52.85
2022-08-16T19:25:47.417Z,52.54
2022-08-16T19:27:57.858Z,52.81
2022-08-16T19:30:24.214Z,52.89
2022-08-16T19:32:50.751Z,53.06
2022-08-16T19:35:16.956Z,52.97
2022-08-16T19:37:55.910Z,52.85
2022-08-16T19:40:36.046Z,52.88
2022-08-16T19:42:36.196Z,52.97
2022-08-16T19:45:02.624Z,52.99
2022-08-16T19:47:28.959Z,53.01
2022-08-16T19:49:55.319Z,53.35
2022-08-16T19:52:21.826Z,53.24
2022-08-16T19:54:48.260Z,53.38
2022-08-16T19:57:14.641Z,53.26
2022-08-16T19:59:41.016Z,53.47
2022-08-16T20:02:07.365Z,53.14
2022-08-16T20:04:33.732Z,53.40
2022-08-16T20:07:00.220Z,53.28
2022-08-16T20:09:26.586Z,53.37
2022-08-16T20:11:52.983Z,53.25
2022-08-16T20:14:25.261Z,53.30
2022-08-16T20:16:45.748Z,53.31
2022-08-16T20:19:12.106Z,53.41
2022-08-16T20:21:38.513Z,53.69
2022-08-16T20:24:30.260Z,53.78
2022-08-16T20:26:31.258Z,53.83
2022-08-16T20:28:57.631Z,53.89
2022-08-16T20:31:24.056Z,53.94
2022-08-16T20:33:50.415Z,54.06
2022-08-16T20:36:16.891Z,54.07
2022-08-16T20:38:43.146Z,54.06
2022-08-16T20:41:09.519Z,54.34
2022-08-16T20:43:35.997Z,54.42
2022-08-16T20:46:02.433Z,54.42
2022-08-16T20:48:28.787Z,54.53
2022-08-16T20:50:55.199Z,54.66
2022-08-16T20:53:21.628Z,54.57
2022-08-16T20:55:48.004Z,54.62
2022-08-16T20:58:14.493Z,54.73
2022-08-16T21:00:40.928Z,54.88
2022-08-16T21:03:10.922Z,55.04
2022-08-16T21:05:39.598Z,55.14
2022-08-16T21:08:28.741Z,55.11
2022-08-16T21:10:33.182Z,55.32
2022-08-16T21:12:59.948Z,55.48
2022-08-16T21:15:26.776Z,55.42
2022-08-16T21:17:53.709Z,55.28
2022-08-16T21:20:21.865Z,55.51
2022-08-16T21:22:50.063Z,55.57
2022-08-16T21:25:16.481Z,55.66
2022-08-16T21:28:40.600Z,55.69
2022-08-16T21:30:09.861Z,55.73
2022-08-16T21:32:36.502Z,55.93
2022-08-16T21:35:03.239Z,55.79
2022-08-16T21:37:29.861Z,55.99
2022-08-16T21:39:56.543Z,56.10
2022-08-16T21:42:23.157Z,56.26
2022-08-16T21:44:49.872Z,56.08
2022-08-16T21:47:16.464Z,56.23
2022-08-16T21:49:43.142Z,56.16
2022-08-16T21:52:09.910Z,56.42
2022-08-16T21:54:36.649Z,56.56
2022-08-16T21:57:06.438Z,56.54
2022-08-16T21:59:33.615Z,56.60
2022-08-16T22:02:00.735Z,56.86
2022-08-16T22:04:37.821Z,56.84
2022-08-16T22:06:54.365Z,57.03
2022-08-16T22:09:20.993Z,57.07
2022-08-16T22:11:47.304Z,57.11
2022-08-16T22:14:13.784Z,57.23
2022-08-16T22:16:40.132Z,57.50
2022-08-16T22:19:06.550Z,57.61
2022-08-16T22:21:33.085Z,57.74
2022-08-16T22:23:59.465Z,57.63
2022-08-16T22:26:29.014Z,57.81
2022-08-16T22:28:52.334Z,57.85
2022-08-16T22:31:18.817Z,58.12
2022-08-16T22:33:45.175Z,58.30
2022-08-16T22:36:11.546Z,58.08
2022-08-16T22:38:53.852Z,58.15
2022-08-16T22:41:04.322Z,58.24
2022-08-16T22:43:30.683Z,58.38
2022-08-16T22:45:57.050Z,58.45
2022-08-16T22:48:23.407Z,58.60
2022-08-16T22:50:49.798Z,58.51
2022-08-16T22:53:16.175Z,58.46
2022-08-16T22:55:42.545Z,58.66
2022-08-16T22:58:08.927Z,58.65
2022-08-16T23:00:35.309Z,58.77
2022-08-16T23:03:01.668Z,58.87
2022-08-16T23:05:28.037Z,58.97
2022-08-16T23:07:54.403Z,59.14
2022-08-16T23:10:20.793Z,58.97
2022-08-16T23:12:47.249Z,59.33
2022-08-16T23:15:13.764Z,59.28
2022-08-16T23:17:39.996Z,59.25
2022-08-16T23:20:06.365Z,59.33
2022-08-16T23:22:32.750Z,59.40
2022-08-16T23:24:59.134Z,59.40
2022-08-16T23:27:25.498Z,59.53
2022-08-16T23:29:51.858Z,59.52
2022-08-16T23:32:18.281Z,59.67
2022-08-16T23:34:44.745Z,59.68
2022-08-16T23:37:11.102Z,59.58
2022-08-16T23:39:37.602Z,59.99
2022-08-16T23:42:03.879Z,60.13
2022-08-16T23:44:55.924Z,60.28
2022-08-16T23:46:56.807Z,60.37
2022-08-16T23:50:00.829Z,60.65
2022-08-16T23:51:49.718Z,60.74
2022-08-16T23:54:16.102Z,60.28
2022-08-16T23:56:42.464Z,60.14
2022-08-16T23:59:08.871Z,60.21
